createdAt,value
2019-05-21T00:00:45.876Z,86.79
2019-05-21T00:01:45.852Z,87.70
2019-05-21T00:02:45.845Z,87.81
2019-05-21T00:03:45.835Z,87.50
2019-05-21T00:04:45.823Z,87.70
2019-05-21T00:05:45.817Z,87.90
2019-05-21T00:06:45.803Z,88.01
2019-05-21T00:07:45.786Z,87.90
2019-05-21T00:08:45.793Z,88.01
2019-05-21T00:09:45.779Z,88.10
2019-05-21T00:10:45.754Z,88.31
2019-05-21T00:11:45.743Z,88.71
2019-05-21T00:12:45.738Z,88.61
2019-05-21T00:13:45.721Z,88.51
2019-05-21T00:14:45.718Z,88.41
2019-05-21T00:15:45.721Z,88.41
2019-05-21T00:16:45.690Z,88.41
2019-05-21T00:17:45.682Z,88.75
2019-05-21T00:18:45.669Z,88.71
2019-05-21T00:19:45.660Z,88.71
2019-05-21T00:20:45.659Z,88.71
2019-05-21T00:21:45.661Z,88.51
2019-05-21T00:22:45.622Z,88.92
2019-05-21T00:23:45.616Z,88.81
2019-05-21T00:24:45.674Z,89.12
2019-05-21T00:25:45.595Z,89.01
2019-05-21T00:26:45.585Z,89.22
2019-05-21T00:27:45.576Z,89.12
2019-05-21T00:28:45.558Z,89.32
2019-05-21T00:29:45.551Z,88.81
2019-05-21T00:30:45.544Z,89.22
2019-05-21T00:31:45.544Z,88.61
2019-05-21T00:32:45.520Z,89.26
2019-05-21T00:33:45.507Z,88.92
2019-05-21T00:34:45.491Z,88.61
2019-05-21T00:35:45.486Z,88.55
2019-05-21T00:36:45.489Z,88.65
2019-05-21T00:37:45.464Z,88.96
2019-05-21T00:38:45.455Z,88.55
2019-05-21T00:39:45.441Z,88.75
2019-05-21T00:40:45.431Z,88.96
2019-05-21T00:41:45.430Z,88.65
2019-05-21T00:42:45.417Z,88.45
2019-05-21T00:43:45.396Z,88.45
2019-05-21T00:44:45.388Z,88.65
2019-05-21T00:45:45.377Z,88.96
2019-05-21T00:46:45.370Z,89.06
2019-05-21T00:47:45.364Z,89.06
2019-05-21T00:48:45.345Z,89.16
2019-05-21T00:49:45.335Z,88.75
2019-05-21T00:50:45.317Z,89.06
2019-05-21T00:51:45.312Z,89.06
2019-05-21T00:52:45.304Z,88.96
2019-05-21T00:53:45.285Z,88.96
2019-05-21T00:54:45.280Z,88.85
2019-05-21T00:55:45.296Z,88.65
2019-05-21T00:56:45.256Z,88.85
2019-05-21T00:57:45.250Z,88.65
2019-05-21T00:58:45.231Z,88.55
2019-05-21T00:59:45.223Z,88.35
2019-05-21T01:00:45.211Z,88.25
2019-05-21T01:01:45.207Z,88.65
2019-05-21T01:02:45.210Z,88.04
2019-05-21T01:03:45.183Z,88.15
2019-05-21T01:04:59.606Z,88.55
2019-05-21T01:05:46.159Z,88.55
2019-05-21T01:06:45.148Z,88.04
2019-05-21T01:07:45.146Z,88.15
2019-05-21T01:08:45.127Z,88.45
2019-05-21T01:09:45.113Z,88.75
2019-05-21T01:10:45.107Z,88.55
2019-05-21T01:11:45.096Z,88.45
2019-05-21T01:12:45.091Z,88.90
2019-05-21T01:13:45.066Z,88.96
2019-05-21T01:14:45.058Z,88.65
2019-05-21T01:15:45.052Z,88.79
2019-05-21T01:16:45.035Z,89.00
2019-05-21T01:17:45.069Z,88.85
2019-05-21T01:18:45.022Z,88.79
2019-05-21T01:19:45.006Z,88.70
2019-05-21T01:20:44.992Z,88.79
2019-05-21T01:21:44.981Z,89.20
2019-05-21T01:22:44.970Z,89.10
2019-05-21T01:23:44.972Z,89.00
2019-05-21T01:24:44.957Z,89.20
2019-05-21T01:25:44.954Z,89.10
2019-05-21T01:26:44.931Z,90.21
2019-05-21T01:27:44.932Z,90.01
2019-05-21T01:28:44.908Z,90.16
2019-05-21T01:29:44.901Z,89.91
2019-05-21T01:30:44.886Z,89.91
2019-05-21T01:31:44.879Z,89.61
2019-05-21T01:32:44.873Z,89.81
2019-05-21T01:33:44.867Z,89.14
2019-05-21T01:34:44.847Z,89.50
2019-05-21T01:35:44.831Z,89.95
2019-05-21T01:36:44.822Z,89.65
2019-05-21T01:37:44.810Z,89.75
2019-05-21T01:38:44.804Z,89.65
2019-05-21T01:39:44.800Z,89.65
2019-05-21T01:40:44.786Z,89.40
2019-05-21T01:41:44.773Z,89.75
2019-05-21T01:42:44.767Z,89.65
2019-05-21T01:43:44.758Z,89.34
2019-05-21T01:44:44.743Z,89.65
2019-05-21T01:45:44.731Z,89.75
2019-05-21T01:46:44.718Z,89.54
2019-05-21T01:47:44.711Z,89.65
2019-05-21T01:48:44.705Z,89.75
2019-05-21T01:49:44.681Z,89.69
2019-05-21T01:50:44.675Z,89.65
2019-05-21T01:51:44.670Z,89.75
2019-05-21T01:52:44.648Z,89.59
2019-05-21T01:53:44.682Z,89.59
2019-05-21T01:54:44.627Z,89.48
2019-05-21T01:55:44.620Z,89.75
2019-05-21T01:56:44.605Z,89.39
2019-05-21T01:57:44.607Z,89.59
2019-05-21T01:58:44.584Z,89.59
2019-05-21T01:59:44.581Z,89.89
2019-05-21T02:00:44.568Z,89.79
2019-05-21T02:01:44.556Z,89.59
2019-05-21T02:02:44.539Z,89.48
2019-05-21T02:03:44.545Z,89.79
2019-05-21T02:04:44.532Z,89.48
2019-05-21T02:05:44.508Z,89.89
2019-05-21T02:06:44.504Z,89.28
2019-05-21T02:07:44.493Z,89.18
2019-05-21T02:08:44.481Z,89.18
2019-05-21T02:09:44.474Z,89.99
2019-05-21T02:10:44.468Z,89.59
2019-05-21T02:11:44.455Z,89.59
2019-05-21T02:12:44.435Z,89.04
2019-05-21T02:13:44.423Z,89.08
2019-05-21T02:14:44.417Z,89.39
2019-05-21T02:15:44.426Z,89.18
2019-05-21T02:16:44.392Z,89.18
2019-05-21T02:17:44.380Z,89.28
2019-05-21T02:18:44.371Z,88.88
2019-05-21T02:19:44.382Z,89.18
2019-05-21T02:20:44.355Z,89.39
2019-05-21T02:21:44.353Z,89.18
2019-05-21T02:22:44.328Z,88.88
2019-05-21T02:23:44.326Z,89.18
2019-05-21T02:24:44.316Z,89.28
2019-05-21T02:25:44.296Z,88.98
2019-05-21T02:26:44.295Z,89.18
2019-05-21T02:27:44.278Z,89.18
2019-05-21T02:28:44.268Z,88.78
2019-05-21T02:29:44.252Z,89.39
2019-05-21T02:30:44.255Z,89.39
2019-05-21T02:31:44.247Z,89.08
2019-05-21T02:32:44.237Z,89.18
2019-05-21T02:33:44.212Z,89.18
2019-05-21T02:34:44.206Z,88.98
2019-05-21T02:35:54.284Z,88.98
2019-05-21T02:36:45.183Z,89.23
2019-05-21T02:37:44.182Z,89.18
2019-05-21T02:38:44.158Z,89.28
2019-05-21T02:39:44.152Z,89.28
2019-05-21T02:40:44.142Z,89.43
2019-05-21T02:41:44.136Z,89.12
2019-05-21T02:42:44.127Z,88.92
2019-05-21T02:43:44.113Z,89.23
2019-05-21T02:44:44.093Z,89.23
2019-05-21T02:45:44.088Z,89.32
2019-05-21T02:46:44.083Z,89.23
2019-05-21T02:47:44.066Z,88.82
2019-05-21T02:48:44.059Z,88.92
2019-05-21T02:49:44.044Z,89.23
2019-05-21T02:50:44.030Z,89.43
2019-05-21T02:51:44.025Z,89.32
2019-05-21T02:52:44.051Z,89.02
2019-05-21T02:53:44.003Z,89.23
2019-05-21T02:54:43.990Z,89.02
2019-05-21T02:55:43.983Z,89.23
2019-05-21T02:56:43.968Z,89.12
2019-05-21T02:57:43.959Z,89.23
2019-05-21T02:58:43.970Z,89.02
2019-05-21T02:59:43.934Z,88.96
2019-05-21T03:00:43.927Z,89.23
2019-05-21T03:01:43.918Z,89.12
2019-05-21T03:02:43.906Z,89.32
2019-05-21T03:03:43.900Z,89.47
2019-05-21T03:04:43.884Z,89.06
2019-05-21T03:05:43.875Z,89.23
2019-05-21T03:06:43.860Z,88.92
2019-05-21T03:07:43.866Z,89.32
2019-05-21T03:08:43.847Z,90.18
2019-05-21T03:09:43.826Z,89.23
2019-05-21T03:10:43.824Z,89.67
2019-05-21T03:11:43.811Z,89.57
2019-05-21T03:12:43.802Z,89.67
2019-05-21T03:13:43.797Z,89.94
2019-05-21T03:14:43.777Z,89.67
2019-05-21T03:15:43.762Z,89.67
2019-05-21T03:16:43.779Z,89.77
2019-05-21T03:17:43.745Z,90.08
2019-05-21T03:18:43.748Z,89.77
2019-05-21T03:19:43.733Z,90.18
2019-05-21T03:20:43.720Z,90.38
2019-05-21T03:21:43.698Z,90.38
2019-05-21T03:22:43.694Z,90.48
2019-05-21T03:23:43.684Z,90.38
2019-05-21T03:24:43.667Z,90.58
2019-05-21T03:25:43.663Z,90.38
2019-05-21T03:26:43.659Z,90.28
2019-05-21T03:27:43.638Z,90.28
2019-05-21T03:28:43.624Z,90.38
2019-05-21T03:29:43.612Z,90.08
2019-05-21T03:30:43.612Z,90.38
2019-05-21T03:31:43.598Z,90.28
2019-05-21T03:32:43.581Z,90.08
2019-05-21T03:33:43.585Z,89.98
2019-05-21T03:34:43.580Z,90.18
2019-05-21T03:35:43.554Z,90.18
2019-05-21T03:36:43.543Z,90.18
2019-05-21T03:37:43.533Z,90.28
2019-05-21T03:38:43.524Z,91.19
2019-05-21T03:39:43.537Z,91.19
2019-05-21T03:40:43.497Z,91.19
2019-05-21T03:41:43.486Z,90.89
2019-05-21T03:42:43.479Z,90.69
2019-05-21T03:43:43.469Z,90.18
2019-05-21T03:44:58.351Z,89.87
2019-05-21T03:45:44.452Z,90.18
2019-05-21T03:46:43.435Z,89.87
2019-05-21T03:47:43.428Z,90.38
2019-05-21T03:48:43.413Z,89.94
2019-05-21T03:49:43.402Z,89.94
2019-05-21T03:50:43.428Z,89.98
2019-05-21T03:51:43.388Z,89.98
2019-05-21T03:52:43.368Z,89.67
2019-05-21T03:53:43.355Z,90.08
2019-05-21T03:54:43.345Z,90.14
2019-05-21T03:55:43.341Z,90.38
2019-05-21T03:56:43.341Z,91.05
2019-05-21T03:57:43.312Z,90.48
2019-05-21T03:58:43.308Z,91.19
2019-05-21T03:59:43.297Z,91.19
2019-05-21T04:00:43.319Z,91.05
2019-05-21T04:01:43.272Z,90.24
2019-05-21T04:02:43.262Z,90.24
2019-05-21T04:03:43.254Z,90.75
2019-05-21T04:04:43.246Z,90.44
2019-05-21T04:05:43.231Z,90.84
2019-05-21T04:06:51.971Z,90.14
2019-05-21T04:07:44.211Z,89.98
2019-05-21T04:08:43.199Z,89.73
2019-05-21T04:09:43.196Z,89.53
2019-05-21T04:10:43.179Z,89.94
2019-05-21T04:11:43.178Z,90.14
2019-05-21T04:12:43.154Z,89.94
2019-05-21T04:13:43.166Z,89.94
2019-05-21T04:14:43.134Z,90.44
2019-05-21T04:15:43.132Z,90.34
2019-05-21T04:16:43.123Z,90.75
2019-05-21T04:17:43.102Z,90.14
2019-05-21T04:18:43.103Z,90.30
2019-05-21T04:19:43.088Z,89.94
2019-05-21T04:20:43.068Z,90.34
2019-05-21T04:21:43.063Z,90.34
2019-05-21T04:22:43.065Z,90.34
2019-05-21T04:23:43.044Z,90.44
2019-05-21T04:24:43.027Z,90.34
2019-05-21T04:25:43.026Z,90.14
2019-05-21T04:26:43.008Z,89.53
2019-05-21T04:27:43.091Z,89.63
2019-05-21T04:28:42.986Z,89.79
2019-05-21T04:29:42.985Z,89.73
2019-05-21T04:30:42.969Z,90.34
2019-05-21T04:31:42.956Z,89.73
2019-05-21T04:32:42.959Z,89.43
2019-05-21T04:33:42.933Z,90.24
2019-05-21T04:34:42.932Z,90.24
2019-05-21T04:35:42.907Z,90.34
2019-05-21T04:36:42.898Z,89.94
2019-05-21T04:37:42.893Z,90.34
2019-05-21T04:38:42.891Z,91.05
2019-05-21T04:39:42.903Z,90.14
2019-05-21T04:40:42.860Z,90.84
2019-05-21T04:41:42.846Z,90.40
2019-05-21T04:42:42.831Z,89.89
2019-05-21T04:43:42.829Z,89.79
2019-05-21T04:44:42.815Z,89.59
2019-05-21T04:45:42.806Z,89.69
2019-05-21T04:46:42.793Z,89.69
2019-05-21T04:47:42.784Z,89.69
2019-05-21T04:48:42.803Z,89.79
2019-05-21T04:49:42.765Z,89.79
2019-05-21T04:50:42.745Z,89.95
2019-05-21T04:51:42.739Z,90.30
2019-05-21T04:52:42.725Z,89.18
2019-05-21T04:53:42.720Z,89.08
2019-05-21T04:54:42.716Z,88.78
2019-05-21T04:55:42.706Z,89.08
2019-05-21T04:56:42.679Z,88.74
2019-05-21T04:57:42.669Z,88.64
2019-05-21T04:58:42.663Z,88.90
2019-05-21T04:59:42.662Z,88.19
2019-05-21T05:00:42.641Z,88.59
2019-05-21T05:01:42.628Z,87.99
2019-05-21T05:02:42.613Z,88.29
2019-05-21T05:03:42.606Z,88.59
2019-05-21T05:04:42.593Z,87.99
2019-05-21T05:05:42.601Z,88.09
2019-05-21T05:06:42.587Z,88.39
2019-05-21T05:07:42.564Z,88.09
2019-05-21T05:08:42.555Z,88.09
2019-05-21T05:09:42.545Z,87.79
2019-05-21T05:10:42.874Z,88.04
2019-05-21T05:11:42.519Z,87.99
2019-05-21T05:12:42.515Z,87.44
2019-05-21T05:13:42.494Z,87.54
2019-05-21T05:14:42.487Z,87.24
2019-05-21T05:15:42.509Z,87.44
2019-05-21T05:16:42.469Z,87.13
2019-05-21T05:17:42.464Z,86.93
2019-05-21T05:18:42.442Z,86.83
2019-05-21T05:19:42.435Z,87.04
2019-05-21T05:20:42.422Z,86.53
2019-05-21T05:21:42.455Z,87.44
2019-05-21T05:22:42.430Z,87.54
2019-05-21T05:23:42.390Z,87.44
2019-05-21T05:24:42.381Z,86.99
2019-05-21T05:25:42.368Z,87.19
2019-05-21T05:26:42.398Z,87.19
2019-05-21T05:27:42.348Z,87.19
2019-05-21T05:28:42.338Z,86.55
2019-05-21T05:29:42.330Z,86.85
2019-05-21T05:30:42.343Z,86.55
2019-05-21T05:31:42.303Z,86.04
2019-05-21T05:32:42.305Z,85.84
2019-05-21T05:33:42.286Z,85.24
2019-05-21T05:34:42.273Z,84.99
2019-05-21T05:35:42.257Z,84.59
2019-05-21T05:36:42.302Z,84.49
2019-05-21T05:37:45.157Z,84.59
2019-05-21T05:38:43.225Z,84.35
2019-05-21T05:39:42.224Z,84.45
2019-05-21T05:40:42.206Z,84.25
2019-05-21T05:41:42.193Z,84.35
2019-05-21T05:42:42.195Z,84.71
2019-05-21T05:43:42.170Z,84.91
2019-05-21T05:44:42.166Z,85.62
2019-05-21T05:45:42.149Z,85.31
2019-05-21T05:46:42.143Z,84.71
2019-05-21T05:47:42.136Z,84.11
2019-05-21T05:48:42.115Z,84.31
2019-05-21T05:49:42.114Z,83.60
2019-05-21T05:50:42.099Z,83.36
2019-05-21T05:51:42.089Z,83.76
2019-05-21T05:52:42.177Z,81.95
2019-05-21T05:53:42.060Z,82.56
2019-05-21T05:54:42.051Z,81.45
2019-05-21T05:55:42.040Z,81.65
2019-05-21T05:56:42.033Z,82.96
2019-05-21T05:57:42.020Z,82.82
2019-05-21T05:58:42.025Z,82.71
2019-05-21T05:59:42.011Z,82.96
2019-05-21T06:00:41.996Z,82.42
2019-05-21T06:01:41.977Z,81.91
2019-05-21T06:02:41.976Z,81.30
2019-05-21T06:03:41.961Z,81.98
2019-05-21T06:04:41.967Z,81.77
2019-05-21T06:05:41.945Z,80.57
2019-05-21T06:06:41.929Z,77.58
2019-05-21T06:07:41.917Z,77.64
2019-05-21T06:08:41.909Z,78.08
2019-05-21T06:09:41.892Z,78.25
2019-05-21T06:10:41.897Z,78.55
2019-05-21T06:11:41.874Z,79.36
2019-05-21T06:12:41.862Z,79.92
2019-05-21T06:13:41.851Z,78.71
2019-05-21T06:14:41.850Z,78.11
2019-05-21T06:15:41.838Z,77.91
2019-05-21T06:16:41.839Z,79.02
2019-05-21T06:17:41.804Z,79.28
2019-05-21T06:18:41.799Z,79.38
2019-05-21T06:19:41.782Z,79.68
2019-05-21T06:20:41.787Z,80.58
2019-05-21T06:21:41.772Z,80.19
2019-05-21T06:22:41.750Z,80.15
2019-05-21T06:23:41.747Z,78.94
2019-05-21T06:24:41.734Z,79.48
2019-05-21T06:25:41.729Z,80.15
2019-05-21T06:26:41.730Z,79.74
2019-05-21T06:27:41.721Z,79.50
2019-05-21T06:28:41.701Z,79.10
2019-05-21T06:29:41.679Z,78.50
2019-05-21T06:30:41.665Z,78.80
2019-05-21T06:31:41.689Z,78.50
2019-05-21T06:32:41.643Z,78.54
2019-05-21T06:33:41.631Z,78.20
2019-05-21T06:34:41.623Z,78.30
2019-05-21T06:35:41.666Z,78.36
2019-05-21T06:36:41.603Z,78.06
2019-05-21T06:37:41.608Z,78.36
2019-05-21T06:38:41.586Z,78.56
2019-05-21T06:39:41.567Z,79.23
2019-05-21T06:40:41.567Z,79.73
2019-05-21T06:41:41.547Z,78.22
2019-05-21T06:42:41.555Z,77.89
2019-05-21T06:43:41.532Z,77.89
2019-05-21T06:44:41.536Z,78.69
2019-05-21T06:45:41.503Z,78.35
2019-05-21T06:46:41.498Z,78.25
2019-05-21T06:47:41.511Z,77.65
2019-05-21T06:48:41.479Z,76.04
2019-05-21T06:49:41.492Z,76.34
2019-05-21T06:50:41.454Z,76.31
2019-05-21T06:51:41.439Z,75.60
2019-05-21T06:52:41.454Z,75.71
2019-05-21T06:53:41.469Z,74.10
2019-05-21T06:54:41.411Z,73.90
2019-05-21T06:55:41.397Z,74.17
2019-05-21T06:56:41.393Z,73.86
2019-05-21T06:57:41.381Z,72.47
2019-05-21T06:58:41.377Z,73.83
2019-05-21T06:59:41.360Z,73.73
2019-05-21T07:00:41.348Z,74.23
2019-05-21T07:01:41.336Z,73.23
2019-05-21T07:02:41.327Z,70.62
2019-05-21T07:03:41.324Z,69.42
2019-05-21T07:04:41.311Z,69.93
2019-05-21T07:05:57.608Z,69.93
2019-05-21T07:06:44.733Z,69.19
2019-05-21T07:07:41.275Z,69.39
2019-05-21T07:08:41.270Z,70.59
2019-05-21T07:09:41.255Z,70.36
2019-05-21T07:10:41.237Z,70.16
2019-05-21T07:11:41.227Z,70.26
2019-05-21T07:12:41.223Z,67.13
2019-05-21T07:13:41.261Z,66.63
2019-05-21T07:14:41.206Z,66.02
2019-05-21T07:15:41.215Z,65.92
2019-05-21T07:16:41.190Z,65.09
2019-05-21T07:17:41.168Z,66.29
2019-05-21T07:18:41.718Z,67.69
2019-05-21T07:19:41.161Z,67.49
2019-05-21T07:20:41.139Z,67.66
2019-05-21T07:21:41.127Z,67.26
2019-05-21T07:22:41.156Z,69.06
2019-05-21T07:23:41.120Z,68.46
2019-05-21T07:24:41.105Z,68.73
2019-05-21T07:25:41.097Z,68.63
2019-05-21T07:26:41.071Z,68.19
2019-05-21T07:27:41.081Z,67.69
2019-05-21T07:28:41.064Z,68.49
2019-05-21T07:29:41.043Z,67.26
2019-05-21T07:30:41.037Z,67.07
2019-05-21T07:31:41.022Z,66.06
2019-05-21T07:32:41.012Z,64.94
2019-05-21T07:33:41.005Z,65.44
2019-05-21T07:34:40.988Z,64.61
2019-05-21T07:35:40.986Z,63.21
2019-05-21T07:36:40.976Z,64.81
2019-05-21T07:37:40.961Z,64.90
2019-05-21T07:38:52.822Z,63.08
2019-05-21T07:39:41.939Z,62.38
2019-05-21T07:40:40.925Z,62.59
2019-05-21T07:41:40.918Z,63.98
2019-05-21T07:42:40.915Z,64.75
2019-05-21T07:43:40.916Z,63.15
2019-05-21T07:44:40.895Z,62.65
2019-05-21T07:45:40.879Z,61.36
2019-05-21T07:46:40.867Z,61.16
2019-05-21T07:47:40.863Z,62.42
2019-05-21T07:48:40.853Z,60.66
2019-05-21T07:49:40.846Z,60.53
2019-05-21T07:50:40.820Z,60.43
2019-05-21T07:51:40.809Z,60.93
2019-05-21T07:52:40.806Z,60.83
2019-05-21T07:53:40.795Z,61.77
2019-05-21T07:54:40.806Z,58.58
2019-05-21T07:55:40.776Z,58.18
2019-05-21T07:56:40.757Z,58.58
2019-05-21T07:57:40.755Z,58.48
2019-05-21T07:58:40.742Z,58.95
2019-05-21T07:59:40.739Z,59.05
2019-05-21T08:00:40.748Z,58.53
2019-05-21T08:01:40.713Z,55.18
2019-05-21T08:02:40.697Z,55.18
2019-05-21T08:03:40.690Z,57.86
2019-05-21T08:04:40.680Z,58.43
2019-05-21T08:05:40.681Z,55.44
2019-05-21T08:06:40.783Z,54.23
2019-05-21T08:07:40.649Z,56.38
2019-05-21T08:08:40.636Z,54.70
2019-05-21T08:09:40.630Z,54.47
2019-05-21T08:10:40.614Z,55.36
2019-05-21T08:11:40.611Z,54.25
2019-05-21T08:12:40.617Z,53.96
2019-05-21T08:13:40.588Z,54.52
2019-05-21T08:14:40.573Z,53.63
2019-05-21T08:15:40.564Z,53.50
2019-05-21T08:16:40.587Z,52.61
2019-05-21T08:17:40.550Z,53.67
2019-05-21T08:18:40.539Z,50.41
2019-05-21T08:19:40.531Z,49.19
2019-05-21T08:20:40.541Z,48.50
2019-05-21T08:21:40.505Z,49.59
2019-05-21T08:22:40.505Z,50.09
2019-05-21T08:23:40.603Z,50.16
2019-05-21T08:24:40.480Z,50.26
2019-05-21T08:25:40.461Z,50.83
2019-05-21T08:26:40.456Z,51.79
2019-05-21T08:27:40.460Z,50.48
2019-05-21T08:28:40.437Z,49.49
2019-05-21T08:29:40.427Z,49.82
2019-05-21T08:30:40.423Z,49.89
2019-05-21T08:31:40.436Z,48.61
2019-05-21T08:32:40.393Z,48.09
2019-05-21T08:33:40.380Z,46.91
2019-05-21T08:34:40.376Z,46.11
2019-05-21T08:35:40.364Z,45.23
2019-05-21T08:36:40.360Z,44.71
2019-05-21T08:37:40.369Z,45.18
2019-05-21T08:38:40.331Z,45.78
2019-05-21T08:39:40.320Z,46.26
2019-05-21T08:40:40.316Z,46.47
2019-05-21T08:41:40.310Z,45.36
2019-05-21T08:42:40.295Z,44.47
2019-05-21T08:43:40.290Z,44.76
2019-05-21T08:44:40.275Z,43.56
2019-05-21T08:45:40.261Z,42.36
2019-05-21T08:46:40.257Z,43.05
2019-05-21T08:47:40.242Z,42.34
2019-05-21T08:48:40.271Z,42.24
2019-05-21T08:49:43.943Z,42.32
2019-05-21T08:50:40.219Z,42.12
2019-05-21T08:51:40.209Z,42.20
2019-05-21T08:52:40.202Z,42.59
2019-05-21T08:53:40.250Z,42.96
2019-05-21T08:54:40.183Z,43.24
2019-05-21T08:55:40.180Z,42.33
2019-05-21T08:56:40.274Z,39.68
2019-05-21T08:57:40.154Z,39.39
2019-05-21T08:58:40.139Z,40.25
2019-05-21T08:59:40.201Z,38.80
2019-05-21T09:00:40.118Z,39.54
2019-05-21T09:01:40.118Z,40.64
2019-05-21T09:02:40.094Z,39.44
2019-05-21T09:03:40.088Z,39.62
2019-05-21T09:04:46.148Z,40.29
2019-05-21T09:05:41.064Z,38.52
2019-05-21T09:06:40.061Z,38.88
2019-05-21T09:07:40.057Z,42.12
2019-05-21T09:08:40.035Z,41.39
2019-05-21T09:09:50.004Z,41.81
2019-05-21T09:10:41.032Z,43.07
2019-05-21T09:11:40.011Z,42.46
2019-05-21T09:12:40.000Z,42.93
2019-05-21T09:13:39.991Z,42.97
2019-05-21T09:14:39.979Z,42.36
2019-05-21T09:15:39.965Z,42.59
2019-05-21T09:16:40.020Z,42.08
2019-05-21T09:17:39.945Z,41.08
2019-05-21T09:18:39.941Z,41.43
2019-05-21T09:19:39.930Z,42.85
2019-05-21T09:20:46.542Z,43.13
2019-05-21T09:21:39.914Z,42.14
2019-05-21T09:22:39.905Z,41.09
2019-05-21T09:23:39.892Z,40.82
2019-05-21T09:24:39.882Z,40.48
2019-05-21T09:25:39.877Z,37.62
2019-05-21T09:26:39.855Z,37.16
2019-05-21T09:27:39.869Z,38.01
2019-05-21T09:28:39.842Z,39.72
2019-05-21T09:29:39.825Z,40.72
2019-05-21T09:30:39.818Z,42.14
2019-05-21T09:31:39.810Z,42.88
2019-05-21T09:32:39.814Z,44.38
2019-05-21T09:33:39.790Z,43.57
2019-05-21T09:34:48.870Z,42.30
2019-05-21T09:35:40.766Z,42.69
2019-05-21T09:36:39.754Z,40.92
2019-05-21T09:37:39.776Z,42.76
2019-05-21T09:38:39.737Z,42.68
2019-05-21T09:39:39.733Z,42.78
2019-05-21T09:40:39.722Z,42.74
2019-05-21T09:41:39.711Z,43.01
2019-05-21T09:42:39.705Z,42.58
2019-05-21T09:43:39.695Z,42.16
2019-05-21T09:44:39.693Z,41.06
2019-05-21T09:45:39.763Z,41.06
2019-05-21T09:46:39.660Z,42.16
2019-05-21T09:47:39.765Z,42.14
2019-05-21T09:48:39.648Z,42.79
2019-05-21T09:49:39.627Z,42.61
2019-05-21T09:50:39.613Z,41.41
2019-05-21T09:51:39.603Z,43.06
2019-05-21T09:52:39.603Z,44.40
2019-05-21T09:53:39.589Z,45.07
2019-05-21T09:54:39.582Z,44.60
2019-05-21T09:55:39.562Z,44.62
2019-05-21T09:56:39.557Z,44.54
2019-05-21T09:57:39.552Z,45.04
2019-05-21T09:58:39.533Z,45.95
2019-05-21T09:59:39.524Z,45.56
2019-05-21T10:00:39.520Z,45.56
2019-05-21T10:01:39.508Z,45.16
2019-05-21T10:02:39.517Z,44.84
2019-05-21T10:03:39.479Z,44.72
2019-05-21T10:04:39.472Z,44.62
2019-05-21T10:05:39.459Z,42.90
2019-05-21T10:06:39.449Z,42.24
2019-05-21T10:07:40.693Z,42.13
2019-05-21T10:08:39.445Z,41.14
2019-05-21T10:09:39.427Z,41.00
2019-05-21T10:10:39.443Z,41.08
2019-05-21T10:11:39.410Z,40.53
2019-05-21T10:12:39.391Z,41.30
2019-05-21T10:13:39.392Z,41.30
2019-05-21T10:14:39.371Z,42.58
2019-05-21T10:15:39.357Z,42.73
2019-05-21T10:16:39.353Z,41.38
2019-05-21T10:17:39.344Z,41.12
2019-05-21T10:18:39.335Z,40.96
2019-05-21T10:19:39.321Z,40.00
2019-05-21T10:20:39.322Z,39.15
2019-05-21T10:21:39.298Z,39.01
2019-05-21T10:22:39.291Z,39.17
2019-05-21T10:23:39.285Z,38.76
2019-05-21T10:24:39.271Z,38.46
2019-05-21T10:25:39.316Z,37.38
2019-05-21T10:26:39.262Z,39.40
2019-05-21T10:27:39.239Z,40.53
2019-05-21T10:28:39.229Z,40.35
2019-05-21T10:29:39.220Z,41.45
2019-05-21T10:30:39.271Z,40.78
2019-05-21T10:31:39.200Z,42.20
2019-05-21T10:32:39.197Z,41.14
2019-05-21T10:33:39.177Z,41.75
2019-05-21T10:34:39.177Z,42.66
2019-05-21T10:35:39.155Z,44.65
2019-05-21T10:36:39.193Z,43.47
2019-05-21T10:37:53.734Z,41.67
2019-05-21T10:38:40.122Z,42.97
2019-05-21T10:39:39.118Z,41.33
2019-05-21T10:40:39.114Z,40.48
2019-05-21T10:41:39.109Z,39.66
2019-05-21T10:42:39.086Z,40.31
2019-05-21T10:43:39.076Z,39.09
2019-05-21T10:44:39.067Z,39.25
2019-05-21T10:45:39.067Z,38.06
2019-05-21T10:46:39.056Z,37.54
2019-05-21T10:47:39.032Z,37.31
2019-05-21T10:48:39.022Z,37.98
2019-05-21T10:49:39.018Z,37.57
2019-05-21T10:50:39.021Z,36.67
2019-05-21T10:51:39.032Z,35.48
2019-05-21T10:52:38.990Z,34.47
2019-05-21T10:53:38.991Z,33.77
2019-05-21T10:54:38.985Z,34.26
2019-05-21T10:55:38.958Z,33.26
2019-05-21T10:56:48.050Z,33.07
2019-05-21T10:57:39.949Z,32.09
2019-05-21T10:58:38.936Z,33.17
2019-05-21T10:59:38.915Z,32.09
2019-05-21T11:00:38.904Z,32.50
2019-05-21T11:01:38.897Z,31.54
2019-05-21T11:02:38.915Z,32.73
2019-05-21T11:03:38.881Z,32.35
2019-05-21T11:04:38.878Z,33.15
2019-05-21T11:05:38.856Z,34.83
2019-05-21T11:06:38.852Z,33.95
2019-05-21T11:07:45.922Z,34.05
2019-05-21T11:08:38.835Z,33.36
2019-05-21T11:09:38.819Z,33.45
2019-05-21T11:10:38.816Z,34.36
2019-05-21T11:11:38.814Z,34.26
2019-05-21T11:12:38.806Z,34.16
2019-05-21T11:13:38.790Z,33.89
2019-05-21T11:14:38.793Z,34.69
2019-05-21T11:15:46.656Z,35.88
2019-05-21T11:16:38.754Z,35.11
2019-05-21T11:17:53.347Z,35.00
2019-05-21T11:18:39.783Z,34.33
2019-05-21T11:19:38.723Z,33.46
2019-05-21T11:20:38.712Z,33.95
2019-05-21T11:21:38.711Z,33.56
2019-05-21T11:22:38.695Z,33.56
2019-05-21T11:23:38.700Z,33.85
2019-05-21T11:24:38.691Z,35.03
2019-05-21T11:25:38.678Z,34.87
2019-05-21T11:26:38.653Z,35.66
2019-05-21T11:27:38.644Z,35.46
2019-05-21T11:28:38.635Z,35.06
2019-05-21T11:29:38.665Z,35.95
2019-05-21T11:30:38.639Z,37.54
2019-05-21T11:31:38.614Z,38.74
2019-05-21T11:32:38.592Z,38.44
2019-05-21T11:33:38.590Z,37.26
2019-05-21T11:34:38.660Z,37.95
2019-05-21T11:35:38.563Z,38.54
2019-05-21T11:36:38.573Z,37.97
2019-05-21T11:37:38.542Z,38.95
2019-05-21T11:38:40.345Z,39.05
2019-05-21T11:39:38.539Z,38.36
2019-05-21T11:40:38.516Z,39.44
2019-05-21T11:41:38.530Z,37.87
2019-05-21T11:42:38.504Z,36.87
2019-05-21T11:43:40.830Z,36.44
2019-05-21T11:44:38.542Z,36.60
2019-05-21T11:45:38.594Z,37.17
2019-05-21T11:46:38.461Z,37.84
2019-05-21T11:47:38.456Z,35.89
2019-05-21T11:48:39.137Z,35.60
2019-05-21T11:49:38.486Z,35.60
2019-05-21T11:50:38.444Z,35.23
2019-05-21T11:51:38.419Z,35.33
2019-05-21T11:52:38.391Z,35.58
2019-05-21T11:53:38.393Z,35.29
2019-05-21T11:54:38.371Z,35.70
2019-05-21T11:55:38.368Z,35.05
2019-05-21T11:56:38.379Z,35.26
2019-05-21T11:57:38.345Z,35.47
2019-05-21T11:58:39.689Z,36.46
2019-05-21T11:59:38.357Z,37.16
2019-05-21T12:00:38.326Z,37.16
2019-05-21T12:01:38.307Z,37.36
2019-05-21T12:02:38.424Z,37.48
2019-05-21T12:03:38.280Z,38.26
2019-05-21T12:04:38.273Z,39.15
2019-05-21T12:05:38.304Z,38.44
2019-05-21T12:06:38.266Z,37.05
2019-05-21T12:07:38.243Z,35.66
2019-05-21T12:08:38.260Z,36.93
2019-05-21T12:09:38.224Z,37.01
2019-05-21T12:10:38.223Z,37.19
2019-05-21T12:11:38.215Z,36.60
2019-05-21T12:12:38.192Z,36.40
2019-05-21T12:13:38.180Z,37.21
2019-05-21T12:14:38.184Z,37.92
2019-05-21T12:15:38.182Z,37.52
2019-05-21T12:16:38.152Z,37.42
2019-05-21T12:17:38.141Z,37.44
2019-05-21T12:18:38.139Z,37.26
2019-05-21T12:19:38.126Z,36.00
2019-05-21T12:20:38.122Z,37.30
2019-05-21T12:21:38.095Z,37.99
2019-05-21T12:22:38.089Z,37.59
2019-05-21T12:23:38.089Z,38.70
2019-05-21T12:24:38.083Z,38.99
2019-05-21T12:25:38.089Z,38.40
2019-05-21T12:26:38.060Z,39.11
2019-05-21T12:27:38.057Z,39.48
2019-05-21T12:28:38.041Z,39.76
2019-05-21T12:29:38.019Z,38.68
2019-05-21T12:30:38.008Z,38.56
2019-05-21T12:31:37.995Z,37.46
2019-05-21T12:32:37.993Z,38.24
2019-05-21T12:33:37.992Z,37.34
2019-05-21T12:34:39.014Z,35.91
2019-05-21T12:35:37.956Z,34.69
2019-05-21T12:36:37.947Z,34.26
2019-05-21T12:37:37.932Z,33.34
2019-05-21T12:38:37.963Z,33.15
2019-05-21T12:39:37.915Z,32.17
2019-05-21T12:40:37.909Z,33.14
2019-05-21T12:41:37.904Z,31.36
2019-05-21T12:42:37.881Z,32.16
2019-05-21T12:43:37.883Z,33.75
2019-05-21T12:44:37.879Z,34.96
2019-05-21T12:45:37.858Z,34.30
2019-05-21T12:46:37.845Z,34.70
2019-05-21T12:47:37.837Z,35.21
2019-05-21T12:48:37.823Z,35.60
2019-05-21T12:49:37.826Z,35.68
2019-05-21T12:50:37.809Z,36.18
2019-05-21T12:51:37.815Z,35.76
2019-05-21T12:52:37.789Z,36.06